sensor_id;sensor_type;location;lat;lon;timestamp;temperature;humidity
3713;DHT22;1872;51.406;6.856;2023-04-25T00:00:52;7.10;99.90
3713;DHT22;1872;51.406;6.856;2023-04-25T00:03:18;7.10;99.90
3713;DHT22;1872;51.406;6.856;2023-04-25T00:05:44;7.10;99.90
3713;DHT22;1872;51.406;6.856;2023-04-25T00:08:10;7.10;99.90
3713;DHT22;1872;51.406;6.856;2023-04-25T00:10:36;7.20;99.90
3713;DHT22;1872;51.406;6.856;2023-04-25T00:13:02;7.20;99.90
3713;DHT22;1872;51.406;6.856;2023-04-25T00:15:28;7.20;99.90
3713;DHT22;1872;51.406;6.856;2023-04-25T00:17:56;7.30;99.90
3713;DHT22;1872;51.406;6.856;2023-04-25T00:20:22;7.20;99.90
3713;DHT22;1872;51.406;6.856;2023-04-25T00:22:49;7.20;99.90
3713;DHT22;1872;51.406;6.856;2023-04-25T00:25:14;7.30;99.90
3713;DHT22;1872;51.406;6.856;2023-04-25T00:27:40;7.30;99.90
3713;DHT22;1872;51.406;6.856;2023-04-25T00:30:07;7.30;99.90
3713;DHT22;1872;51.406;6.856;2023-04-25T00:32:33;7.30;99.90
3713;DHT22;1872;51.406;6.856;2023-04-25T00:34:59;7.30;99.90
3713;DHT22;1872;51.406;6.856;2023-04-25T00:37:24;7.30;99.90
3713;DHT22;1872;51.406;6.856;2023-04-25T00:39:50;7.30;99.90
3713;DHT22;1872;51.406;6.856;2023-04-25T00:42:16;7.30;99.90
3713;DHT22;1872;51.406;6.856;2023-04-25T00:44:43;7.20;99.90
3713;DHT22;1872;51.406;6.856;2023-04-25T00:47:10;7.20;99.90
3713;DHT22;1872;51.406;6.856;2023-04-25T00:49:36;7.20;99.90
3713;DHT22;1872;51.406;6.856;2023-04-25T00:52:02;7.30;99.90
3713;DHT22;1872;51.406;6.856;2023-04-25T00:54:29;7.30;99.90
3713;DHT22;1872;51.406;6.856;2023-04-25T00:56:56;7.30;99.90
3713;DHT22;1872;51.406;6.856;2023-04-25T00:59:25;7.30;99.90
3713;DHT22;1872;51.406;6.856;2023-04-25T01:02:00;7.30;99.90
3713;DHT22;1872;51.406;6.856;2023-04-25T01:04:27;7.30;99.90
3713;DHT22;1872;51.406;6.856;2023-04-25T01:06:54;7.30;99.90
3713;DHT22;1872;51.406;6.856;2023-04-25T01:09:20;7.30;99.90
3713;DHT22;1872;51.406;6.856;2023-04-25T01:11:46;7.40;99.90
3713;DHT22;1872;51.406;6.856;2023-04-25T01:14:11;7.40;99.90
3713;DHT22;1872;51.406;6.856;2023-04-25T01:16:37;7.40;99.90
3713;DHT22;1872;51.406;6.856;2023-04-25T01:19:08;7.40;99.90
3713;DHT22;1872;51.406;6.856;2023-04-25T01:21:36;7.40;99.90
3713;DHT22;1872;51.406;6.856;2023-04-25T01:24:02;7.40;99.90
3713;DHT22;1872;51.406;6.856;2023-04-25T01:26:27;7.40;99.90
3713;DHT22;1872;51.406;6.856;2023-04-25T01:28:53;7.40;99.90
3713;DHT22;1872;51.406;6.856;2023-04-25T01:31:19;7.40;99.90
3713;DHT22;1872;51.406;6.856;2023-04-25T01:33:45;7.40;99.90
3713;DHT22;1872;51.406;6.856;2023-04-25T01:36:11;7.40;99.90
3713;DHT22;1872;51.406;6.856;2023-04-25T01:38:38;7.40;99.90
3713;DHT22;1872;51.406;6.856;2023-04-25T01:41:04;7.40;99.90
3713;DHT22;1872;51.406;6.856;2023-04-25T01:43:30;7.40;99.90
3713;DHT22;1872;51.406;6.856;2023-04-25T01:45:56;7.40;99.90
3713;DHT22;1872;51.406;6.856;2023-04-25T01:48:22;7.40;99.90
3713;DHT22;1872;51.406;6.856;2023-04-25T01:50:48;7.40;99.90
3713;DHT22;1872;51.406;6.856;2023-04-25T01:53:14;7.40;99.90
3713;DHT22;1872;51.406;6.856;2023-04-25T01:55:40;7.40;99.90
3713;DHT22;1872;51.406;6.856;2023-04-25T01:58:05;7.40;99.90
3713;DHT22;1872;51.406;6.856;2023-04-25T02:00:36;7.40;99.90
3713;DHT22;1872;51.406;6.856;2023-04-25T02:03:04;7.40;99.90
3713;DHT22;1872;51.406;6.856;2023-04-25T02:05:37;7.40;99.90
3713;DHT22;1872;51.406;6.856;2023-04-25T02:08:05;7.40;99.90
3713;DHT22;1872;51.406;6.856;2023-04-25T02:10:31;7.40;99.90
3713;DHT22;1872;51.406;6.856;2023-04-25T02:12:57;7.40;99.90
3713;DHT22;1872;51.406;6.856;2023-04-25T02:15:23;7.40;99.90
3713;DHT22;1872;51.406;6.856;2023-04-25T02:17:49;7.40;99.90
3713;DHT22;1872;51.406;6.856;2023-04-25T02:20:15;7.40;99.90
3713;DHT22;1872;51.406;6.856;2023-04-25T02:22:41;7.40;99.90
3713;DHT22;1872;51.406;6.856;2023-04-25T02:25:08;7.40;99.90
3713;DHT22;1872;51.406;6.856;2023-04-25T02:27:35;7.40;99.90
3713;DHT22;1872;51.406;6.856;2023-04-25T02:30:00;7.40;99.90
3713;DHT22;1872;51.406;6.856;2023-04-25T02:32:26;7.40;99.90
3713;DHT22;1872;51.406;6.856;2023-04-25T02:34:52;7.40;99.90
3713;DHT22;1872;51.406;6.856;2023-04-25T02:37:18;7.40;99.90
3713;DHT22;1872;51.406;6.856;2023-04-25T02:39:43;7.40;99.90
3713;DHT22;1872;51.406;6.856;2023-04-25T02:42:09;7.40;99.90
3713;DHT22;1872;51.406;6.856;2023-04-25T02:44:34;7.40;99.90
3713;DHT22;1872;51.406;6.856;2023-04-25T02:47:00;7.40;99.90
3713;DHT22;1872;51.406;6.856;2023-04-25T02:49:26;7.40;99.90
3713;DHT22;1872;51.406;6.856;2023-04-25T02:51:51;7.40;99.90
3713;DHT22;1872;51.406;6.856;2023-04-25T02:54:17;7.40;99.90
3713;DHT22;1872;51.406;6.856;2023-04-25T02:56:43;7.40;99.90
3713;DHT22;1872;51.406;6.856;2023-04-25T02:59:09;7.40;99.90
3713;DHT22;1872;51.406;6.856;2023-04-25T03:01:35;7.40;99.90
3713;DHT22;1872;51.406;6.856;2023-04-25T03:04:00;7.40;99.90
3713;DHT22;1872;51.406;6.856;2023-04-25T03:06:26;7.30;99.90
3713;DHT22;1872;51.406;6.856;2023-04-25T03:08:51;7.30;99.90
3713;DHT22;1872;51.406;6.856;2023-04-25T03:11:17;7.30;99.90
3713;DHT22;1872;51.406;6.856;2023-04-25T03:13:45;7.30;99.90
3713;DHT22;1872;51.406;6.856;2023-04-25T03:16:11;7.30;99.90
3713;DHT22;1872;51.406;6.856;2023-04-25T03:18:36;7.30;99.90
3713;DHT22;1872;51.406;6.856;2023-04-25T03:21:02;7.30;99.90
3713;DHT22;1872;51.406;6.856;2023-04-25T03:23:28;7.30;99.90
3713;DHT22;1872;51.406;6.856;2023-04-25T03:25:53;7.20;99.90
3713;DHT22;1872;51.406;6.856;2023-04-25T03:28:19;7.20;99.90
3713;DHT22;1872;51.406;6.856;2023-04-25T03:30:45;7.20;99.90
3713;DHT22;1872;51.406;6.856;2023-04-25T03:33:11;7.20;99.90
3713;DHT22;1872;51.406;6.856;2023-04-25T03:35:36;7.20;99.90
3713;DHT22;1872;51.406;6.856;2023-04-25T03:38:02;7.20;99.90
3713;DHT22;1872;51.406;6.856;2023-04-25T03:40:28;7.10;99.90
3713;DHT22;1872;51.406;6.856;2023-04-25T03:42:53;7.10;99.90
3713;DHT22;1872;51.406;6.856;2023-04-25T03:45:19;7.10;99.90
3713;DHT22;1872;51.406;6.856;2023-04-25T03:47:45;7.10;99.90
3713;DHT22;1872;51.406;6.856;2023-04-25T03:50:10;7.10;99.90
3713;DHT22;1872;51.406;6.856;2023-04-25T03:52:36;7.10;99.90
3713;DHT22;1872;51.406;6.856;2023-04-25T03:55:01;7.10;99.90
3713;DHT22;1872;51.406;6.856;2023-04-25T03:57:27;7.10;99.90
3713;DHT22;1872;51.406;6.856;2023-04-25T03:59:53;7.00;99.90
3713;DHT22;1872;51.406;6.856;2023-04-25T04:02:18;7.10;99.90
3713;DHT22;1872;51.406;6.856;2023-04-25T04:04:44;7.10;99.90
3713;DHT22;1872;51.406;6.856;2023-04-25T04:07:10;7.00;99.90
3713;DHT22;1872;51.406;6.856;2023-04-25T04:09:36;7.00;99.90
3713;DHT22;1872;51.406;6.856;2023-04-25T04:12:01;7.00;99.90
3713;DHT22;1872;51.406;6.856;2023-04-25T04:14:28;7.00;99.90
3713;DHT22;1872;51.406;6.856;2023-04-25T04:16:53;7.00;99.90
3713;DHT22;1872;51.406;6.856;2023-04-25T04:19:19;7.00;99.90
3713;DHT22;1872;51.406;6.856;2023-04-25T04:21:45;7.00;99.90
3713;DHT22;1872;51.406;6.856;2023-04-25T04:24:11;7.00;99.90
3713;DHT22;1872;51.406;6.856;2023-04-25T04:26:37;7.00;99.90
3713;DHT22;1872;51.406;6.856;2023-04-25T04:29:04;6.90;99.90
3713;DHT22;1872;51.406;6.856;2023-04-25T04:31:29;6.90;99.90
3713;DHT22;1872;51.406;6.856;2023-04-25T04:33:55;6.80;99.90
3713;DHT22;1872;51.406;6.856;2023-04-25T04:36:21;6.80;99.90
3713;DHT22;1872;51.406;6.856;2023-04-25T04:38:48;6.80;99.90
3713;DHT22;1872;51.406;6.856;2023-04-25T04:41:14;6.80;99.90
3713;DHT22;1872;51.406;6.856;2023-04-25T04:43:40;6.80;99.90
3713;DHT22;1872;51.406;6.856;2023-04-25T04:46:06;6.80;99.90
3713;DHT22;1872;51.406;6.856;2023-04-25T04:48:32;6.80;99.90
3713;DHT22;1872;51.406;6.856;2023-04-25T04:51:00;6.70;99.90
3713;DHT22;1872;51.406;6.856;2023-04-25T04:53:26;6.70;99.90
3713;DHT22;1872;51.406;6.856;2023-04-25T04:55:52;6.70;99.90
3713;DHT22;1872;51.406;6.856;2023-04-25T04:58:18;6.60;99.90
3713;DHT22;1872;51.406;6.856;2023-04-25T05:00:44;6.60;99.90
3713;DHT22;1872;51.406;6.856;2023-04-25T05:03:10;6.60;99.90
3713;DHT22;1872;51.406;6.856;2023-04-25T05:05:36;6.60;99.90
3713;DHT22;1872;51.406;6.856;2023-04-25T05:08:05;6.50;99.90
3713;DHT22;1872;51.406;6.856;2023-04-25T05:10:31;6.50;99.90
3713;DHT22;1872;51.406;6.856;2023-04-25T05:12:57;6.50;99.90
3713;DHT22;1872;51.406;6.856;2023-04-25T05:15:22;6.40;99.90
3713;DHT22;1872;51.406;6.856;2023-04-25T05:17:48;6.40;99.90
3713;DHT22;1872;51.406;6.856;2023-04-25T05:20:13;6.40;99.90
3713;DHT22;1872;51.406;6.856;2023-04-25T05:22:39;6.40;99.90
3713;DHT22;1872;51.406;6.856;2023-04-25T05:25:07;6.40;99.90
3713;DHT22;1872;51.406;6.856;2023-04-25T05:27:33;6.50;99.90
3713;DHT22;1872;51.406;6.856;2023-04-25T05:29:59;6.60;99.90
3713;DHT22;1872;51.406;6.856;2023-04-25T05:32:25;6.60;99.90
3713;DHT22;1872;51.406;6.856;2023-04-25T05:34:50;6.60;99.90
3713;DHT22;1872;51.406;6.856;2023-04-25T05:37:17;6.70;99.90
3713;DHT22;1872;51.406;6.856;2023-04-25T05:39:43;6.80;99.90
3713;DHT22;1872;51.406;6.856;2023-04-25T05:42:08;6.80;99.90
3713;DHT22;1872;51.406;6.856;2023-04-25T05:44:34;6.90;99.90
3713;DHT22;1872;51.406;6.856;2023-04-25T05:46:59;7.00;99.90
3713;DHT22;1872;51.406;6.856;2023-04-25T05:49:25;7.10;99.90
3713;DHT22;1872;51.406;6.856;2023-04-25T05:51:51;7.10;99.90
3713;DHT22;1872;51.406;6.856;2023-04-25T05:54:16;7.10;99.90
3713;DHT22;1872;51.406;6.856;2023-04-25T05:56:42;7.20;99.90
3713;DHT22;1872;51.406;6.856;2023-04-25T05:59:07;7.20;99.90
3713;DHT22;1872;51.406;6.856;2023-04-25T06:01:33;7.30;99.90
3713;DHT22;1872;51.406;6.856;2023-04-25T06:03:59;7.30;99.90
3713;DHT22;1872;51.406;6.856;2023-04-25T06:06:24;7.40;99.90
3713;DHT22;1872;51.406;6.856;2023-04-25T06:08:52;7.40;99.90
3713;DHT22;1872;51.406;6.856;2023-04-25T06:11:17;7.50;99.90
3713;DHT22;1872;51.406;6.856;2023-04-25T06:13:43;7.50;99.90
3713;DHT22;1872;51.406;6.856;2023-04-25T06:16:09;7.60;99.90
3713;DHT22;1872;51.406;6.856;2023-04-25T06:18:34;7.70;99.90
3713;DHT22;1872;51.406;6.856;2023-04-25T06:21:00;7.80;99.90
3713;DHT22;1872;51.406;6.856;2023-04-25T06:23:26;8.00;99.90
3713;DHT22;1872;51.406;6.856;2023-04-25T06:25:51;8.10;99.90
3713;DHT22;1872;51.406;6.856;2023-04-25T06:28:17;8.40;99.90
3713;DHT22;1872;51.406;6.856;2023-04-25T06:30:44;8.90;99.90
3713;DHT22;1872;51.406;6.856;2023-04-25T06:33:09;9.50;99.90
3713;DHT22;1872;51.406;6.856;2023-04-25T06:35:35;10.00;99.90
3713;DHT22;1872;51.406;6.856;2023-04-25T06:38:01;10.60;99.90
3713;DHT22;1872;51.406;6.856;2023-04-25T06:40:26;11.10;99.90
3713;DHT22;1872;51.406;6.856;2023-04-25T06:42:52;11.30;99.90
3713;DHT22;1872;51.406;6.856;2023-04-25T06:45:18;11.60;99.90
3713;DHT22;1872;51.406;6.856;2023-04-25T06:47:43;11.50;99.90
3713;DHT22;1872;51.406;6.856;2023-04-25T06:50:11;11.30;99.90
3713;DHT22;1872;51.406;6.856;2023-04-25T06:52:37;10.90;99.90
3713;DHT22;1872;51.406;6.856;2023-04-25T06:55:03;10.50;99.90
3713;DHT22;1872;51.406;6.856;2023-04-25T06:57:30;10.10;99.90
3713;DHT22;1872;51.406;6.856;2023-04-25T06:59:55;9.80;99.90
3713;DHT22;1872;51.406;6.856;2023-04-25T07:02:21;9.50;99.90
3713;DHT22;1872;51.406;6.856;2023-04-25T07:04:47;9.20;99.90
3713;DHT22;1872;51.406;6.856;2023-04-25T07:07:13;9.10;99.90
3713;DHT22;1872;51.406;6.856;2023-04-25T07:09:39;9.00;99.90
3713;DHT22;1872;51.406;6.856;2023-04-25T07:12:04;9.00;99.90
3713;DHT22;1872;51.406;6.856;2023-04-25T07:14:30;9.00;99.90
3713;DHT22;1872;51.406;6.856;2023-04-25T07:16:56;8.90;99.90
3713;DHT22;1872;51.406;6.856;2023-04-25T07:19:22;8.90;99.90
3713;DHT22;1872;51.406;6.856;2023-04-25T07:21:52;8.90;99.90
3713;DHT22;1872;51.406;6.856;2023-04-25T07:24:17;8.90;99.90
3713;DHT22;1872;51.406;6.856;2023-04-25T07:26:43;8.90;99.90
3713;DHT22;1872;51.406;6.856;2023-04-25T07:29:09;8.90;99.90
3713;DHT22;1872;51.406;6.856;2023-04-25T07:31:35;8.90;99.90
3713;DHT22;1872;51.406;6.856;2023-04-25T07:34:01;8.90;99.90
3713;DHT22;1872;51.406;6.856;2023-04-25T07:36:26;9.20;99.90
3713;DHT22;1872;51.406;6.856;2023-04-25T07:38:52;9.70;99.90
3713;DHT22;1872;51.406;6.856;2023-04-25T07:41:18;10.30;99.90
3713;DHT22;1872;51.406;6.856;2023-04-25T07:43:43;10.70;99.90
3713;DHT22;1872;51.406;6.856;2023-04-25T07:46:09;11.10;99.90
3713;DHT22;1872;51.406;6.856;2023-04-25T07:48:35;11.20;99.90
3713;DHT22;1872;51.406;6.856;2023-04-25T07:51:00;11.60;99.90
3713;DHT22;1872;51.406;6.856;2023-04-25T07:53:26;11.90;99.90
3713;DHT22;1872;51.406;6.856;2023-04-25T07:55:52;12.00;99.90
3713;DHT22;1872;51.406;6.856;2023-04-25T07:58:18;12.20;99.90
3713;DHT22;1872;51.406;6.856;2023-04-25T08:00:47;12.10;99.90
3713;DHT22;1872;51.406;6.856;2023-04-25T08:03:13;11.90;99.90
3713;DHT22;1872;51.406;6.856;2023-04-25T08:05:38;12.00;99.90
3713;DHT22;1872;51.406;6.856;2023-04-25T08:08:05;12.20;99.90
3713;DHT22;1872;51.406;6.856;2023-04-25T08:10:32;12.30;99.90
3713;DHT22;1872;51.406;6.856;2023-04-25T08:12:59;12.40;99.90
3713;DHT22;1872;51.406;6.856;2023-04-25T08:15:25;12.40;99.90
3713;DHT22;1872;51.406;6.856;2023-04-25T08:17:51;12.20;99.90
3713;DHT22;1872;51.406;6.856;2023-04-25T08:20:16;12.30;99.90
3713;DHT22;1872;51.406;6.856;2023-04-25T08:22:42;12.40;99.90
3713;DHT22;1872;51.406;6.856;2023-04-25T08:25:08;12.40;99.90
3713;DHT22;1872;51.406;6.856;2023-04-25T08:27:34;12.20;99.90
3713;DHT22;1872;51.406;6.856;2023-04-25T08:30:00;12.30;99.90
3713;DHT22;1872;51.406;6.856;2023-04-25T08:32:27;12.70;99.90
3713;DHT22;1872;51.406;6.856;2023-04-25T08:34:52;13.10;99.90
3713;DHT22;1872;51.406;6.856;2023-04-25T08:37:21;13.30;99.90
3713;DHT22;1872;51.406;6.856;2023-04-25T08:39:47;13.60;99.90
3713;DHT22;1872;51.406;6.856;2023-04-25T08:42:17;13.40;99.90
3713;DHT22;1872;51.406;6.856;2023-04-25T08:44:45;13.30;99.90
3713;DHT22;1872;51.406;6.856;2023-04-25T08:47:10;13.50;99.90
3713;DHT22;1872;51.406;6.856;2023-04-25T08:49:37;13.50;99.90
3713;DHT22;1872;51.406;6.856;2023-04-25T08:52:05;13.30;99.90
3713;DHT22;1872;51.406;6.856;2023-04-25T08:54:32;13.10;99.90
3713;DHT22;1872;51.406;6.856;2023-04-25T08:57:01;12.90;99.90
3713;DHT22;1872;51.406;6.856;2023-04-25T08:59:32;12.60;99.90
3713;DHT22;1872;51.406;6.856;2023-04-25T09:01:58;12.30;99.90
3713;DHT22;1872;51.406;6.856;2023-04-25T09:04:24;12.10;99.90
3713;DHT22;1872;51.406;6.856;2023-04-25T09:06:50;12.00;99.90
3713;DHT22;1872;51.406;6.856;2023-04-25T09:09:16;12.00;99.90
3713;DHT22;1872;51.406;6.856;2023-04-25T09:11:41;11.80;99.90
3713;DHT22;1872;51.406;6.856;2023-04-25T09:14:19;11.70;99.90
3713;DHT22;1872;51.406;6.856;2023-04-25T09:19:33;11.40;99.90
3713;DHT22;1872;51.406;6.856;2023-04-25T09:22:02;11.60;99.90
3713;DHT22;1872;51.406;6.856;2023-04-25T09:26:57;12.00;99.90
3713;DHT22;1872;51.406;6.856;2023-04-25T09:29:30;12.00;99.90
3713;DHT22;1872;51.406;6.856;2023-04-25T09:32:21;12.00;99.90
3713;DHT22;1872;51.406;6.856;2023-04-25T09:34:49;12.00;99.90
3713;DHT22;1872;51.406;6.856;2023-04-25T09:37:23;12.00;99.90
3713;DHT22;1872;51.406;6.856;2023-04-25T09:39:54;12.10;99.90
3713;DHT22;1872;51.406;6.856;2023-04-25T09:42:24;12.00;99.90
3713;DHT22;1872;51.406;6.856;2023-04-25T09:44:53;12.00;99.90
3713;DHT22;1872;51.406;6.856;2023-04-25T09:47:19;11.90;99.90
3713;DHT22;1872;51.406;6.856;2023-04-25T09:49:46;11.70;99.90
3713;DHT22;1872;51.406;6.856;2023-04-25T09:52:17;11.70;99.90
3713;DHT22;1872;51.406;6.856;2023-04-25T09:54:44;11.70;99.90
3713;DHT22;1872;51.406;6.856;2023-04-25T09:59:49;11.70;99.90
3713;DHT22;1872;51.406;6.856;2023-04-25T10:02:18;11.70;99.90
3713;DHT22;1872;51.406;6.856;2023-04-25T10:04:48;11.70;99.90
3713;DHT22;1872;51.406;6.856;2023-04-25T10:07:14;11.70;99.90
3713;DHT22;1872;51.406;6.856;2023-04-25T10:09:40;11.60;99.90
3713;DHT22;1872;51.406;6.856;2023-04-25T10:12:08;11.50;99.90
3713;DHT22;1872;51.406;6.856;2023-04-25T10:14:34;11.40;99.90
3713;DHT22;1872;51.406;6.856;2023-04-25T10:17:00;11.50;99.90
3713;DHT22;1872;51.406;6.856;2023-04-25T10:19:27;11.60;99.90
3713;DHT22;1872;51.406;6.856;2023-04-25T10:21:55;11.70;99.90
3713;DHT22;1872;51.406;6.856;2023-04-25T10:24:21;11.70;99.90
3713;DHT22;1872;51.406;6.856;2023-04-25T10:26:48;11.70;99.90
3713;DHT22;1872;51.406;6.856;2023-04-25T10:29:25;11.70;99.90
3713;DHT22;1872;51.406;6.856;2023-04-25T10:31:50;11.70;99.90
3713;DHT22;1872;51.406;6.856;2023-04-25T10:34:17;11.80;99.90
3713;DHT22;1872;51.406;6.856;2023-04-25T10:36:50;11.90;99.90
3713;DHT22;1872;51.406;6.856;2023-04-25T10:39:23;12.10;99.90
3713;DHT22;1872;51.406;6.856;2023-04-25T10:41:56;12.20;99.90
3713;DHT22;1872;51.406;6.856;2023-04-25T10:44:26;12.20;99.90
3713;DHT22;1872;51.406;6.856;2023-04-25T10:46:56;12.40;99.90
3713;DHT22;1872;51.406;6.856;2023-04-25T10:52:16;12.80;99.90
3713;DHT22;1872;51.406;6.856;2023-04-25T10:54:46;12.90;99.90
3713;DHT22;1872;51.406;6.856;2023-04-25T10:57:40;12.90;99.90
3713;DHT22;1872;51.406;6.856;2023-04-25T11:00:11;12.90;99.90
3713;DHT22;1872;51.406;6.856;2023-04-25T11:02:42;12.70;99.90
3713;DHT22;1872;51.406;6.856;2023-04-25T11:07:55;12.00;99.70
3713;DHT22;1872;51.406;6.856;2023-04-25T11:10:32;11.60;99.80
3713;DHT22;1872;51.406;6.856;2023-04-25T11:13:20;11.40;99.90
3713;DHT22;1872;51.406;6.856;2023-04-25T11:15:55;11.10;99.90
3713;DHT22;1872;51.406;6.856;2023-04-25T11:18:21;10.90;99.90
3713;DHT22;1872;51.406;6.856;2023-04-25T11:20:48;10.70;99.90
3713;DHT22;1872;51.406;6.856;2023-04-25T11:23:15;10.50;99.90
3713;DHT22;1872;51.406;6.856;2023-04-25T11:25:42;10.50;99.90
3713;DHT22;1872;51.406;6.856;2023-04-25T11:28:08;10.50;99.90
3713;DHT22;1872;51.406;6.856;2023-04-25T11:30:33;10.50;99.90
3713;DHT22;1872;51.406;6.856;2023-04-25T11:32:59;10.60;99.90
3713;DHT22;1872;51.406;6.856;2023-04-25T11:35:25;10.60;99.90
3713;DHT22;1872;51.406;6.856;2023-04-25T11:37:51;10.70;99.90
3713;DHT22;1872;51.406;6.856;2023-04-25T11:40:17;10.70;99.90
3713;DHT22;1872;51.406;6.856;2023-04-25T11:42:47;10.70;99.90
3713;DHT22;1872;51.406;6.856;2023-04-25T11:45:13;10.80;99.90
3713;DHT22;1872;51.406;6.856;2023-04-25T11:47:39;10.80;99.90
3713;DHT22;1872;51.406;6.856;2023-04-25T11:50:06;10.90;99.90
3713;DHT22;1872;51.406;6.856;2023-04-25T11:52:46;10.90;99.90
3713;DHT22;1872;51.406;6.856;2023-04-25T11:55:17;10.90;99.90
3713;DHT22;1872;51.406;6.856;2023-04-25T11:57:45;10.90;99.90
3713;DHT22;1872;51.406;6.856;2023-04-25T12:00:12;10.90;99.90
3713;DHT22;1872;51.406;6.856;2023-04-25T12:02:43;10.80;99.90
3713;DHT22;1872;51.406;6.856;2023-04-25T12:05:10;10.70;99.90
3713;DHT22;1872;51.406;6.856;2023-04-25T12:07:36;10.50;99.90
3713;DHT22;1872;51.406;6.856;2023-04-25T12:10:07;10.40;99.90
3713;DHT22;1872;51.406;6.856;2023-04-25T12:12:34;10.20;99.90
3713;DHT22;1872;51.406;6.856;2023-04-25T12:15:18;10.10;99.90
3713;DHT22;1872;51.406;6.856;2023-04-25T12:17:48;9.90;99.90
3713;DHT22;1872;51.406;6.856;2023-04-25T12:20:18;9.90;99.90
3713;DHT22;1872;51.406;6.856;2023-04-25T12:22:46;9.90;99.90
3713;DHT22;1872;51.406;6.856;2023-04-25T12:25:13;9.90;99.90
3713;DHT22;1872;51.406;6.856;2023-04-25T12:27:39;10.00;99.90
3713;DHT22;1872;51.406;6.856;2023-04-25T12:30:12;10.10;99.90
3713;DHT22;1872;51.406;6.856;2023-04-25T12:32:38;10.20;99.90
3713;DHT22;1872;51.406;6.856;2023-04-25T12:35:05;10.30;99.90
3713;DHT22;1872;51.406;6.856;2023-04-25T12:37:31;10.40;99.90
3713;DHT22;1872;51.406;6.856;2023-04-25T12:39:57;10.50;99.90
3713;DHT22;1872;51.406;6.856;2023-04-25T12:42:23;10.50;99.90
3713;DHT22;1872;51.406;6.856;2023-04-25T12:44:48;10.60;99.90
3713;DHT22;1872;51.406;6.856;2023-04-25T12:47:14;10.70;99.90
3713;DHT22;1872;51.406;6.856;2023-04-25T12:49:40;10.80;99.90
3713;DHT22;1872;51.406;6.856;2023-04-25T12:52:06;10.90;99.90
3713;DHT22;1872;51.406;6.856;2023-04-25T12:54:31;10.90;99.90
3713;DHT22;1872;51.406;6.856;2023-04-25T12:56:58;10.90;99.90
3713;DHT22;1872;51.406;6.856;2023-04-25T12:59:24;10.90;99.90
3713;DHT22;1872;51.406;6.856;2023-04-25T13:01:50;11.00;99.90
3713;DHT22;1872;51.406;6.856;2023-04-25T13:04:15;11.00;99.90
3713;DHT22;1872;51.406;6.856;2023-04-25T13:06:41;11.00;99.90
3713;DHT22;1872;51.406;6.856;2023-04-25T13:09:07;11.10;99.90
3713;DHT22;1872;51.406;6.856;2023-04-25T13:11:34;11.00;99.90
3713;DHT22;1872;51.406;6.856;2023-04-25T13:14:00;11.00;99.90
3713;DHT22;1872;51.406;6.856;2023-04-25T13:16:25;10.90;99.90
3713;DHT22;1872;51.406;6.856;2023-04-25T13:18:52;10.70;99.90
3713;DHT22;1872;51.406;6.856;2023-04-25T13:21:17;10.60;99.90
3713;DHT22;1872;51.406;6.856;2023-04-25T13:23:43;10.40;99.90
3713;DHT22;1872;51.406;6.856;2023-04-25T13:26:10;10.30;99.90
3713;DHT22;1872;51.406;6.856;2023-04-25T13:28:35;10.20;99.90
3713;DHT22;1872;51.406;6.856;2023-04-25T13:31:01;10.10;99.90
3713;DHT22;1872;51.406;6.856;2023-04-25T13:33:26;10.00;99.90
3713;DHT22;1872;51.406;6.856;2023-04-25T13:35:52;10.00;99.90
3713;DHT22;1872;51.406;6.856;2023-04-25T13:38:24;10.00;99.90
3713;DHT22;1872;51.406;6.856;2023-04-25T13:40:50;10.00;99.90
3713;DHT22;1872;51.406;6.856;2023-04-25T13:43:22;10.10;99.90
3713;DHT22;1872;51.406;6.856;2023-04-25T13:45:49;10.10;99.90
3713;DHT22;1872;51.406;6.856;2023-04-25T13:48:14;10.10;99.90
3713;DHT22;1872;51.406;6.856;2023-04-25T13:50:40;10.20;99.90
3713;DHT22;1872;51.406;6.856;2023-04-25T13:53:06;10.20;99.90
3713;DHT22;1872;51.406;6.856;2023-04-25T13:55:31;10.20;99.90
3713;DHT22;1872;51.406;6.856;2023-04-25T13:57:57;10.40;99.90
3713;DHT22;1872;51.406;6.856;2023-04-25T14:00:23;10.50;99.90
3713;DHT22;1872;51.406;6.856;2023-04-25T14:02:49;10.60;99.90
3713;DHT22;1872;51.406;6.856;2023-04-25T14:05:15;10.70;99.90
3713;DHT22;1872;51.406;6.856;2023-04-25T14:07:41;10.80;99.90
3713;DHT22;1872;51.406;6.856;2023-04-25T14:10:07;10.80;99.90
3713;DHT22;1872;51.406;6.856;2023-04-25T14:12:33;10.70;99.90
3713;DHT22;1872;51.406;6.856;2023-04-25T14:14:58;10.80;99.90
3713;DHT22;1872;51.406;6.856;2023-04-25T14:17:24;11.00;99.90
3713;DHT22;1872;51.406;6.856;2023-04-25T14:19:51;11.10;99.90
3713;DHT22;1872;51.406;6.856;2023-04-25T14:22:17;11.20;99.90
3713;DHT22;1872;51.406;6.856;2023-04-25T14:24:42;11.30;99.90
3713;DHT22;1872;51.406;6.856;2023-04-25T14:27:08;11.30;99.90
3713;DHT22;1872;51.406;6.856;2023-04-25T14:29:34;11.30;99.90
3713;DHT22;1872;51.406;6.856;2023-04-25T14:32:00;11.30;99.90
3713;DHT22;1872;51.406;6.856;2023-04-25T14:34:26;11.30;99.90
3713;DHT22;1872;51.406;6.856;2023-04-25T14:36:51;11.30;99.90
3713;DHT22;1872;51.406;6.856;2023-04-25T14:39:18;11.40;99.90
3713;DHT22;1872;51.406;6.856;2023-04-25T14:41:44;11.50;99.90
3713;DHT22;1872;51.406;6.856;2023-04-25T14:44:10;11.50;99.90
3713;DHT22;1872;51.406;6.856;2023-04-25T14:46:37;11.50;99.90
3713;DHT22;1872;51.406;6.856;2023-04-25T14:49:03;11.40;99.90
3713;DHT22;1872;51.406;6.856;2023-04-25T14:51:29;11.40;99.90
3713;DHT22;1872;51.406;6.856;2023-04-25T14:53:55;11.30;99.90
3713;DHT22;1872;51.406;6.856;2023-04-25T14:56:21;11.20;99.90
3713;DHT22;1872;51.406;6.856;2023-04-25T14:58:46;11.10;99.90
3713;DHT22;1872;51.406;6.856;2023-04-25T15:01:12;11.00;99.90
3713;DHT22;1872;51.406;6.856;2023-04-25T15:03:41;11.00;99.90
3713;DHT22;1872;51.406;6.856;2023-04-25T15:06:07;10.90;99.90
3713;DHT22;1872;51.406;6.856;2023-04-25T15:08:33;11.00;99.90
3713;DHT22;1872;51.406;6.856;2023-04-25T15:11:00;11.00;99.90
3713;DHT22;1872;51.406;6.856;2023-04-25T15:13:26;11.00;99.90
3713;DHT22;1872;51.406;6.856;2023-04-25T15:15:52;10.90;99.90
3713;DHT22;1872;51.406;6.856;2023-04-25T15:18:21;10.90;99.90
3713;DHT22;1872;51.406;6.856;2023-04-25T15:20:50;10.90;99.90
3713;DHT22;1872;51.406;6.856;2023-04-25T15:23:17;10.90;99.90
3713;DHT22;1872;51.406;6.856;2023-04-25T15:25:43;10.80;99.90
3713;DHT22;1872;51.406;6.856;2023-04-25T15:28:09;10.80;99.90
3713;DHT22;1872;51.406;6.856;2023-04-25T15:30:35;10.70;99.90
3713;DHT22;1872;51.406;6.856;2023-04-25T15:33:00;10.50;99.90
3713;DHT22;1872;51.406;6.856;2023-04-25T15:35:26;10.50;99.80
3713;DHT22;1872;51.406;6.856;2023-04-25T15:37:52;10.40;99.80
3713;DHT22;1872;51.406;6.856;2023-04-25T15:40:18;10.40;99.60
3713;DHT22;1872;51.406;6.856;2023-04-25T15:42:49;10.30;99.40
3713;DHT22;1872;51.406;6.856;2023-04-25T15:45:20;10.20;99.20
3713;DHT22;1872;51.406;6.856;2023-04-25T15:47:46;10.20;99.10
3713;DHT22;1872;51.406;6.856;2023-04-25T15:50:13;10.20;99.10
3713;DHT22;1872;51.406;6.856;2023-04-25T15:52:40;10.20;99.10
3713;DHT22;1872;51.406;6.856;2023-04-25T15:55:08;10.20;99.10
3713;DHT22;1872;51.406;6.856;2023-04-25T15:57:34;10.30;99.00
3713;DHT22;1872;51.406;6.856;2023-04-25T16:00:01;10.30;98.90
3713;DHT22;1872;51.406;6.856;2023-04-25T16:02:29;10.20;98.60
3713;DHT22;1872;51.406;6.856;2023-04-25T16:04:55;10.20;98.40
3713;DHT22;1872;51.406;6.856;2023-04-25T16:07:21;10.20;98.10
3713;DHT22;1872;51.406;6.856;2023-04-25T16:09:47;10.10;98.10
3713;DHT22;1872;51.406;6.856;2023-04-25T16:12:13;10.10;98.30
3713;DHT22;1872;51.406;6.856;2023-04-25T16:14:38;10.20;98.40
3713;DHT22;1872;51.406;6.856;2023-04-25T16:17:04;10.30;98.40
3713;DHT22;1872;51.406;6.856;2023-04-25T16:19:30;10.30;98.40